createdAt,value
2022-08-22T00:01:58.825Z,99346.72
2022-08-22T00:02:44.478Z,99341.13
2022-08-22T00:02:45.887Z,99321.41
2022-08-22T00:02:46.391Z,99339.56
2022-08-22T00:03:04.985Z,99299.13
2022-08-22T00:03:11.648Z,99354.84
2022-08-22T00:04:35.983Z,99345.22
2022-08-22T00:07:20.876Z,99342.44
2022-08-22T00:10:04.101Z,99336.50
2022-08-22T00:12:39.719Z,99339.47
2022-08-22T00:15:31.490Z,99346.41
2022-08-22T00:18:10.639Z,99346.72
2022-08-22T00:20:48.970Z,99350.34
2022-08-22T00:23:23.485Z,99343.69
2022-08-22T00:26:01.167Z,99347.19
2022-08-22T00:28:35.774Z,99342.13
2022-08-22T00:31:20.691Z,99342.94
2022-08-22T00:33:55.498Z,99342.13
2022-08-22T00:36:31.821Z,99344.28
2022-08-22T00:39:13.872Z,99347.56
2022-08-22T00:42:45.211Z,99346.06
2022-08-22T00:45:43.755Z,99346.06
2022-08-22T00:48:42.100Z,99346.06
2022-08-22T00:51:44.647Z,99348.22
2022-08-22T00:54:28.651Z,99350.03
2022-08-22T00:57:31.193Z,99346.22
2022-08-22T01:00:19.427Z,99345.56
2022-08-22T01:03:27.569Z,99343.84
2022-08-22T01:06:18.476Z,99342.72
2022-08-22T01:09:03.218Z,99343.69
2022-08-22T01:12:05.058Z,99333.00
2022-08-22T01:14:48.292Z,99344.06
2022-08-22T01:18:05.863Z,99345.91
2022-08-22T01:21:44.108Z,99343.44
2022-08-22T01:25:21.482Z,99339.16
2022-08-22T01:28:51.959Z,99341.78
2022-08-22T01:32:19.682Z,99343.28
2022-08-22T01:35:14.862Z,99343.25
2022-08-22T01:38:21.638Z,99340.81
2022-08-22T01:41:28.840Z,99339.81
2022-08-22T01:44:15.741Z,99344.09
2022-08-22T01:47:00.513Z,99348.72
2022-08-22T01:49:40.734Z,99348.53
2022-08-22T01:52:19.633Z,99353.31
2022-08-22T01:54:56.128Z,99351.50
2022-08-22T01:57:25.703Z,99345.09
2022-08-22T01:59:57.537Z,99345.25
2022-08-22T02:02:57.250Z,99346.41
2022-08-22T02:05:30.974Z,99339.16
2022-08-22T02:08:17.398Z,99329.09
2022-08-22T02:10:59.531Z,99335.25
2022-08-22T02:13:46.603Z,99331.84
2022-08-22T02:16:31.833Z,99332.06
2022-08-22T02:19:21.429Z,99321.63
2022-08-22T02:21:56.700Z,99337.31
2022-08-22T02:24:45.731Z,99329.78
2022-08-22T02:27:31.511Z,99327.31
2022-08-22T02:30:07.982Z,99328.06
2022-08-22T02:32:54.106Z,99332.84
2022-08-22T02:35:31.483Z,99332.22
2022-08-22T02:38:22.630Z,99335.03
2022-08-22T02:41:08.762Z,99339.66
2022-08-22T02:43:49.615Z,99338.34
2022-08-22T02:46:31.975Z,99336.41
2022-08-22T02:49:11.773Z,99332.78
2022-08-22T02:51:56.283Z,99339.88
2022-08-22T02:54:30.452Z,99331.47
2022-08-22T02:57:14.496Z,99337.56
2022-08-22T03:00:07.095Z,99335.91
2022-08-22T03:03:15.025Z,99338.53
2022-08-22T03:06:00.881Z,99334.34
2022-08-22T03:08:32.949Z,99338.63
2022-08-22T03:11:15.671Z,99340.47
2022-08-22T03:14:03.211Z,99334.81
2022-08-22T03:16:40.633Z,99338.34
2022-08-22T03:19:18.797Z,99338.34
2022-08-22T03:21:57.558Z,99345.09
2022-08-22T03:24:39.734Z,99336.91
2022-08-22T03:27:32.516Z,99341.53
2022-08-22T03:30:10.777Z,99338.44
2022-08-22T03:32:53.288Z,99332.38
2022-08-22T03:35:38.787Z,99337.19
2022-08-22T03:38:20.101Z,99339.78
2022-08-22T03:41:18.557Z,99336.19
2022-08-22T03:44:21.542Z,99338.38
2022-08-22T03:47:24.863Z,99343.00
2022-08-22T03:50:54.725Z,99340.13
2022-08-22T03:54:13.462Z,99343.50
2022-08-22T03:57:27.743Z,99343.66
2022-08-22T04:00:19.399Z,99348.25
2022-08-22T04:03:31.535Z,99349.75
2022-08-22T04:06:56.277Z,99355.50
2022-08-22T04:10:07.239Z,99351.56
2022-08-22T04:13:03.772Z,99358.84
2022-08-22T04:16:30.011Z,99351.34
2022-08-22T04:19:29.890Z,99357.09
2022-08-22T04:22:25.399Z,99367.47
2022-08-22T04:25:03.690Z,99375.06
2022-08-22T04:27:43.759Z,99370.47
2022-08-22T04:30:23.870Z,99366.50
2022-08-22T04:33:02.474Z,99371.44
2022-08-22T04:35:35.790Z,99370.63
2022-08-22T04:38:14.331Z,99369.59
2022-08-22T04:40:50.201Z,99369.59
2022-08-22T04:43:28.008Z,99374.28
2022-08-22T04:46:05.822Z,99383.59
2022-08-22T04:48:40.468Z,99385.88
2022-08-22T04:51:20.787Z,99385.38
2022-08-22T04:54:30.814Z,99379.34
2022-08-22T04:57:21.025Z,99376.19
2022-08-22T04:59:50.424Z,99376.19
2022-08-22T05:02:23.917Z,99380.69
2022-08-22T05:05:02.316Z,99390.22
2022-08-22T05:07:39.637Z,99386.13
2022-08-22T05:10:17.123Z,99394.41
2022-08-22T05:12:52.771Z,99389.38
2022-08-22T05:15:25.976Z,99399.25
2022-08-22T05:18:02.218Z,99396.31
2022-08-22T05:20:30.971Z,99401.72
2022-08-22T05:23:17.044Z,99398.91
2022-08-22T05:25:50.041Z,99395.59
2022-08-22T05:28:35.311Z,99394.78
2022-08-22T05:31:08.732Z,99400.09
2022-08-22T05:33:44.392Z,99397.00
2022-08-22T05:36:20.257Z,99395.44
2022-08-22T05:38:56.973Z,99401.88
2022-08-22T05:41:28.853Z,99403.59
2022-08-22T05:43:56.034Z,99407.47
2022-08-22T05:46:32.331Z,99404.88
2022-08-22T05:49:03.148Z,99411.25
2022-08-22T05:51:45.133Z,99411.84
2022-08-22T05:54:18.981Z,99407.03
2022-08-22T05:56:54.790Z,99406.19
2022-08-22T05:59:29.893Z,99410.44
2022-08-22T06:02:08.831Z,99405.28
2022-08-22T06:04:49.554Z,99393.56
2022-08-22T06:07:25.219Z,99399.03
2022-08-22T06:10:20.624Z,99400.59
2022-08-22T06:13:00.295Z,99402.81
2022-08-22T06:15:36.129Z,99403.31
2022-08-22T06:18:09.987Z,99398.63
2022-08-22T06:20:43.363Z,99407.75
2022-08-22T06:23:20.366Z,99415.56
2022-08-22T06:25:52.219Z,99412.28
2022-08-22T06:28:25.001Z,99418.25
2022-08-22T06:30:56.969Z,99415.88
2022-08-22T06:33:29.970Z,99411.56
2022-08-22T06:36:06.017Z,99420.19
2022-08-22T06:38:53.786Z,99413.50
2022-08-22T06:41:28.678Z,99410.56
2022-08-22T06:43:59.095Z,99415.66
2022-08-22T06:46:31.637Z,99421.13
2022-08-22T06:49:02.676Z,99416.16
2022-08-22T06:51:31.004Z,99417.13
2022-08-22T06:54:03.284Z,99425.41
2022-08-22T06:56:38.775Z,99423.97
2022-08-22T06:59:12.646Z,99427.84
2022-08-22T07:01:50.447Z,99437.34
2022-08-22T07:04:21.323Z,99440.91
2022-08-22T07:06:51.132Z,99446.50
2022-08-22T07:09:23.939Z,99441.84
2022-08-22T07:11:55.227Z,99436.81
2022-08-22T07:14:31.188Z,99435.50
2022-08-22T07:17:01.702Z,99430.88
2022-08-22T07:19:32.738Z,99438.38
2022-08-22T07:22:12.973Z,99431.44
2022-08-22T07:24:47.362Z,99437.78
2022-08-22T07:27:40.059Z,99433.22
2022-08-22T07:30:13.089Z,99428.75
2022-08-22T07:32:51.742Z,99424.22
2022-08-22T07:35:26.802Z,99424.44
2022-08-22T07:38:08.258Z,99426.66
2022-08-22T07:40:55.432Z,99429.88
2022-08-22T07:43:33.986Z,99428.13
2022-08-22T07:46:21.142Z,99428.38
2022-08-22T07:49:08.609Z,99434.94
2022-08-22T07:51:44.332Z,99425.97
2022-08-22T07:57:59.738Z,99434.28
2022-08-22T08:01:38.221Z,99439.06
2022-08-22T08:09:56.283Z,99450.28
2022-08-22T10:19:38.210Z,99391.22
2022-08-22T10:47:48.260Z,99353.88
2022-08-22T11:09:30.295Z,99344.72
2022-08-22T11:20:59.224Z,99324.09
2022-08-22T11:37:11.550Z,99314.19
2022-08-22T11:44:21.619Z,99307.44
2022-08-22T12:43:57.646Z,99262.25
2022-08-22T13:50:08.206Z,99231.78
2022-08-22T13:53:22.264Z,99228.13
2022-08-22T14:05:02.036Z,99220.66
2022-08-22T14:45:42.594Z,99193.13
2022-08-22T15:22:57.723Z,99168.31
2022-08-22T15:30:57.180Z,99170.31
2022-08-22T15:34:25.812Z,99163.00
2022-08-22T15:51:35.739Z,99151.44
2022-08-22T16:12:50.697Z,99150.50
2022-08-22T16:20:26.682Z,99155.53
2022-08-22T16:41:50.890Z,99156.06
2022-08-22T16:46:11.024Z,99153.84
2022-08-22T18:20:40.528Z,99196.56
2022-08-22T20:05:01.234Z,99258.94
2022-08-22T21:21:48.695Z,99293.75
2022-08-22T22:13:27.166Z,99330.72
2022-08-22T22:21:13.146Z,99324.94
2022-08-22T22:32:53.771Z,99338.59
2022-08-22T22:45:10.585Z,99353.00
2022-08-22T22:52:25.290Z,99359.53
2022-08-22T23:55:34.310Z,99376.19
